Data 2
Data 2
_hPa
2026-01-01 00:00,Cairo,14.2,12,55,1012
2026-01-01 00:00,Lagos,27.8,8,82,1008
2026-01-01 00:00,Nairobi,18.5,10,68,1015
timestamp,station,temperature_C,wind_speed_kmh,humidity_pct,pressure
_hPa
2026-01-01 00:00,Cairo,14.2,12,55,1012
2026-01-01 00:00,Lagos,27.8,8,82,1008
2026-01-01 00:00,Nairobi,18.5,10,68,1015
2026-01-01 01:00,Cairo,13.9,11,56,1013
2026-01-01 01:00,Lagos,27.5,9,83,1007
2026-01-01 01:00,Nairobi,18.2,12,67,1016
2026-01-01 02:00,Cairo,13.5,10,57,1014
2026-01-01 02:00,Lagos,27.2,7,84,1006
2026-01-01 02:00,Nairobi,18.0,11,66,1015
2026-01-01 03:00,Cairo,13.1,9,58,1015
2026-01-01 03:00,Lagos,26.9,6,85,1005
2026-01-01 03:00,Nairobi,17.7,10,65,1014
...
timestamp,station,temperature_C,wind_speed_kmh,humidity_pct,pressure
_hPa
2026-01-01 00:00,Cairo,14.2,12,55,1012
2026-01-01 00:00,Lagos,27.8,8,82,1008
2026-01-01 00:00,Nairobi,18.5,10,68,1015
2026-01-01 01:00,Cairo,13.9,11,56,1013
2026-01-01 01:00,Lagos,27.5,9,83,1007
2026-01-01 01:00,Nairobi,18.2,12,67,1016
2026-01-01 02:00,Cairo,13.5,10,57,1014
2026-01-01 02:00,Lagos,27.2,7,84,1006
2026-01-01 02:00,Nairobi,18.0,11,66,1015
2026-01-01 03:00,Cairo,13.1,9,58,1015
2026-01-01 03:00,Lagos,26.9,6,85,1005
2026-01-01 03:00,Nairobi,17.7,10,65,1014
2026-01-01 03:00,Cape
Town,19.2,19,63,1007timestamp,station,temperature_C,wind_speed_kmh,
humidity_pct,pressure_hPa
2026-01-01 00:00,Cairo,14.2,12,55,1012
2026-01-01 00:00,Lagos,27.8,8,82,1008
2026-01-01 00:00,Nairobi,18.5,10,68,1015
2026-01-01 01:00,Cairo,13.9,11,56,1013
2026-01-01 01:00,Lagos,27.5,9,83,1007
2026-01-01 01:00,Nairobi,18.2,12,67,1016
2026-01-01 02:00,Lagos,27.2,7,84,1006
2026-01-01 02:00,Nairobi,18.0,11,66,1015
2026-01-01 03:00,Cairo,13.1,9,58,1015
2026-01-01 03:00,Lagos,26.9,6,85,1005
2026-01-01 03:00,Nairobi,17.7,10,65,1014
...
timestamp,station,temperature_C,wind_speed_kmh,humidity_pct,pressure
_hPa
2026-01-01 00:00,Cairo,14.2,12,55,1012
2026-01-01 00:00,Lagos,27.8,8,82,1008
2026-01-01 00:00,Nairobi,18.5,10,68,1015
2026-01-01 01:00,Cairo,13.9,11,56,1013
2026-01-01 01:00,Lagos,27.5,9,83,1007
2026-01-01 01:00,Nairobi,18.2,12,67,1016
2026-01-01 02:00,Cairo,13.5,10,57,1014
2026-01-01 02:00,Lagos,27.2,7,84,1006
2026-01-01 02:00,Nairobi,18.0,11,66,1015
2026-01-01 03:00,Cairo,13.1,9,58,1015
2026-01-01 03:00,Lagos,26.9,6,85,1005
2026-01-01 03:00,Nairobi,17.7,10,65,1014
...
timestamp,station,temperature_C,wind_speed_kmh,humidity_pct,pressure
_hPa
2026-01-01 00:00,Cairo,14.2,12,55,1012
2026-01-01 00:00,Lagos,27.8,8,82,1008
2026-01-01 00:00,Nairobi,18.5,10,68,1015
2026-01-01 01:00,Cairo,13.9,11,56,1013
2026-01-01 01:00,Lagos,27.5,9,83,1007
2026-01-01 01:00,Nairobi,18.2,12,67,1016
2026-01-01 02:00,Cairo,13.5,10,57,1014
2026-01-01 02:00,Lagos,27.2,7,84,1006
2026-01-01 02:00,Nairobi,18.0,11,66,1015
2026-01-01 03:00,Cairo,13.1,9,58,1015
2026-01-01 03:00,Lagos,26.9,6,85,1005
2026-01-01 03:00,Nairobi,17.7,10,65,1014
2026-01-01 00:00,Cairo,14.2,12,55,1012
2026-01-01 00:00,Lagos,27.8,8,82,1008
2026-01-01 00:00,Nairobi,18.5,10,68,1015
2026-01-01 01:00,Cairo,13.9,11,56,1013
2026-01-01 01:00,Lagos,27.5,9,83,1007
2026-01-01 01:00,Nairobi,18.2,12,67,1016
2026-01-01 02:00,Cairo,13.5,10,57,1014
2026-01-01 02:00,Lagos,27.2,7,84,1006
2026-01-01 02:00,Nairobi,18.0,11,66,1015
2026-01-01 03:00,Cairo,13.1,9,58,1015
2026-01-01 03:00,Lagos,26.9,6,85,1005
2026-01-01 03:00,Nairobi,17.7,10,65,1014
...
timestamp,station,temperature_C,wind_speed_kmh,humidity_pct,pressure
_hPa
2026-01-01 00:00,Cairo,14.2,12,55,1012
2026-01-01 00:00,Lagos,27.8,8,82,1008
2026-01-01 00:00,Nairobi,18.5,10,68,1015
2026-01-01 01:00,Cairo,13.9,11,56,1013
2026-01-01 01:00,Lagos,27.5,9,83,1007
2026-01-01 01:00,Nairobi,18.2,12,67,1016
2026-01-01 02:00,Cairo,13.5,10,57,1014
2026-01-01 02:00,Lagos,27.2,7,84,1006
2026-01-01 02:00,Nairobi,18.0,11,66,1015
2026-01-01 03:00,Cairo,13.1,9,58,1015
2026-01-01 03:00,Lagos,26.9,6,85,1005
2026-01-01 03:00,Nairobi,17.7,10,65,1014
...
timestamp,station,temperature_C,wind_speed_kmh,humidity_pct,pressure
_hPa
2026-01-01 00:00,Cairo,14.2,12,55,1012
2026-01-01 00:00,Lagos,27.8,8,82,1008
2026-01-01 00:00,Nairobi,18.5,10,68,1015
2026-01-01 01:00,Cairo,13.9,11,56,1013
2026-01-01 01:00,Lagos,27.5,9,83,1007
2026-01-01 01:00,Nairobi,18.2,12,67,1016
2026-01-01 02:00,Cairo,13.5,10,57,1014
2026-01-01 02:00,Lagos,27.2,7,84,1006
2026-01-01 02:00,Nairobi,18.0,11,66,1015
2026-01-01 03:00,Cairo,13.1,9,58,1015
2026-01-01 03:00,Lagos,26.9,6,85,1005
2026-01-01 03:00,Nairobi,17.7,10,65,1014
...
timestamp,station,temperature_C,wind_speed_kmh,humidity_pct,pressure
_hPa
2026-01-01 00:00,Cairo,14.2,12,55,1012
2026-01-01 00:00,Lagos,27.8,8,82,1008
2026-01-01 00:00,Nairobi,18.5,10,68,1015
2026-01-01 01:00,Cairo,13.9,11,56,1013
2026-01-01 01:00,Lagos,27.5,9,83,1007
2026-01-01 01:00,Nairobi,18.2,12,67,1016
2026-01-01 02:00,Cairo,13.5,10,57,1014
2026-01-01 02:00,Lagos,27.2,7,84,1006
2026-01-01 02:00,Nairobi,18.0,11,66,1015
2026-01-01 03:00,Cairo,13.1,9,58,1015
2026-01-01 03:00,Lagos,26.9,6,85,1005
2026-01-01 03:00,Nairobi,17.7,10,65,1014
...
...
2026-01-01 01:00,Cairo,13.9,11,56,1013
2026-01-01 01:00,Lagos,27.5,9,83,1007
2026-01-01 01:00,Nairobi,18.2,12,67,1016
2026-01-01 02:00,Cairo,13.5,10,57,1014
2026-01-01 02:00,Lagos,27.2,7,84,1006
2026-01-01 02:00,Nairobi,18.0,11,66,1015
2026-01-01 03:00,Cairo,13.1,9,58,1015
2026-01-01 03:00,Lagos,26.9,6,85,1005
2026-01-01 03:00,Nairobi,17.7,10,65,1014
...
2026-01-01 00:00,Vostok,-54.8,22,48,652
2026-01-01 00:00,Amundsen-Scott,-38.1,41,55,701
2026-01-01 01:00,McMurdo,-13.2,29,70,986
2026-01-01 04:00,McMurdo,-15.8,34,67,982
2026-01-01 04:00,Vostok,-56.2,23,46,647
2026-01-01 04:00,Amundsen-Scott,-36.5,38,59,705
2026-01-01 05:00,McMurdo,-16.3,30,66,981
2026-01-01 05:00,Vostok,-56.9,19,45,646
2026-01-01 05:00,Amundsen-Scott,-35.8,37,60,706
2026-01-01 06:00,McMurdo,-17.0,32,65,980
2026-01-01 06:00,Vostok,-57.5,21,44,645
2026-01-01 06:00,Amundsen-Scott,-35.2,36,61,707
2026-01-01 07:00,McMurdo,-17.8,33,64,979
2026-01-01 07:00,Vostok,-58.0,24,43,644
2026-01-01 07:00,Amundsen-Scott,-34.7,35,62,708
2026-01-01 08:00,McMurdo,-18.5,31,63,978
2026-01-01 08:00,Vostok,-58.6,22,42,643
2026-01-01 08:00,Amundsen-Scott,-34.1,34,63,709
2026-01-01 09:00,McMurdo,-19.1,29,62,977
2026-01-01 09:00,Vostok,-59.2,20,41,642
2026-01-01 09:00,Amundsen-Scott,-33.6,33,64,710
2026-01-01 10:00,McMurdo,-19.8,28,61,976
2026-01-01 10:00,Vostok,-59.7,19,40,641
2026-01-01 10:00,Amundsen-Scott,-33.0,32,65,711
2026-01-01 11:00,McMurdo,-20.4,27,60,975
2026-01-01 11:00,Vostok,-60.3,18,39,640
2026-01-01 11:00,Amundsen-Scott,-32.5,31,66,712
2026-01-01 12:00,McMurdo,-21.0,26,59,974
2026-01-01 12:00,Vostok,-60.8,17,38,639
2026-01-01 12:00,Amundsen-Scott,-32.0,30,67,713
...
2026-01-01 04:00,McMurdo,-15.8,34,67,982
2026-01-01 04:00,Vostok,-56.2,23,46,647
2026-01-01 04:00,Amundsen-Scott,-36.5,38,59,705
2026-01-01 05:00,McMurdo,-16.3,30,66,981
2026-01-01 05:00,Vostok,-56.9,19,45,646
2026-01-01 05:00,Amundsen-Scott,-35.8,37,60,706
2026-01-01 06:00,McMurdo,-17.0,32,65,980
2026-01-01 06:00,Vostok,-57.5,21,44,645
2026-01-01 06:00,Amundsen-Scott,-35.2,36,61,707
2026-01-01 07:00,McMurdo,-17.8,33,64,979
2026-01-01 07:00,Vostok,-58.0,24,43,644
2026-01-01 07:00,Amundsen-Scott,-34.7,35,62,708
2026-01-01 08:00,McMurdo,-18.5,31,63,978
2026-01-01 08:00,Vostok,-58.6,22,42,643
2026-01-01 08:00,Amundsen-Scott,-34.1,34,63,709
2026-01-01 09:00,McMurdo,-19.1,29,62,977
2026-01-01 09:00,Vostok,-59.2,20,41,642
2026-01-01 09:00,Amundsen-Scott,-33.6,33,64,710
2026-01-01 10:00,McMurdo,-19.8,28,61,976
2026-01-01 10:00,Vostok,-59.7,19,40,641
2026-01-01 10:00,Amundsen-Scott,-33.0,32,65,711
2026-01-01 11:00,McMurdo,-20.4,27,60,975
2026-01-01 11:00,Vostok,-60.3,18,39,640
2026-01-01 11:00,Amundsen-Scott,-32.5,31,66,712
2026-01-01 12:00,McMurdo,-21.0,26,59,974
2026-01-01 12:00,Vostok,-60.8,17,38,639
2026-01-01 12:00,Amundsen-Scott,-32.0,30,67,713
2026-01-01 04:00,Vostok,-56.2,23,46,647
2026-01-01 04:00,Amundsen-Scott,-36.5,38,59,705
2026-01-01 05:00,McMurdo,-16.3,30,66,981
2026-01-01 05:00,Vostok,-56.9,19,45,646
2026-01-01 05:00,Amundsen-Scott,-35.8,37,60,706
2026-01-01 06:00,McMurdo,-17.0,32,65,980
2026-01-01 06:00,Vostok,-57.5,21,44,645
2026-01-01 06:00,Amundsen-Scott,-35.2,36,61,707
2026-01-01 07:00,McMurdo,-17.8,33,64,979
2026-01-01 07:00,Vostok,-58.0,24,43,644
2026-01-01 07:00,Amundsen-Scott,-34.7,35,62,708
2026-01-01 08:00,McMurdo,-18.5,31,63,978
2026-01-01 08:00,Vostok,-58.6,22,42,643
2026-01-01 08:00,Amundsen-Scott,-34.1,34,63,709
2026-01-01 09:00,McMurdo,-19.1,29,62,977
2026-01-01 09:00,Vostok,-59.2,20,41,642
2026-01-01 09:00,Amundsen-Scott,-33.6,33,64,710
2026-01-01 10:00,McMurdo,-19.8,28,61,976
2026-01-01 10:00,Vostok,-59.7,19,40,641
2026-01-01 10:00,Amundsen-Scott,-33.0,32,65,711
2026-01-01 11:00,McMurdo,-20.4,27,60,975
2026-01-01 11:00,Vostok,-60.3,18,39,640
2026-01-01 11:00,Amundsen-Scott,-32.5,31,66,712
2026-01-01 12:00,McMurdo,-21.0,26,59,974
2026-01-01 12:00,Vostok,-60.8,17,38,639
2026-01-01 12:00,Amundsen-Scott,-32.0,30,67,713
2026-01-01 04:00,Vostok,-56.2,23,46,647
2026-01-01 04:00,Amundsen-Scott,-36.5,38,59,705
2026-01-01 05:00,McMurdo,-16.3,30,66,981
2026-01-01 05:00,Vostok,-56.9,19,45,646
2026-01-01 05:00,Amundsen-Scott,-35.8,37,60,706
2026-01-01 06:00,McMurdo,-17.0,32,65,980
2026-01-01 06:00,Vostok,-57.5,21,44,645
2026-01-01 06:00,Amundsen-Scott,-35.2,36,61,707
2026-01-01 07:00,McMurdo,-17.8,33,64,979
2026-01-01 07:00,Vostok,-58.0,24,43,644
2026-01-01 07:00,Amundsen-Scott,-34.7,35,62,708
2026-01-01 08:00,McMurdo,-18.5,31,63,978
2026-01-01 08:00,Vostok,-58.6,22,42,643
2026-01-01 08:00,Amundsen-Scott,-34.1,34,63,709
2026-01-01 09:00,McMurdo,-19.1,29,62,977
2026-01-01 09:00,Vostok,-59.2,20,41,642
2026-01-01 09:00,Amundsen-Scott,-33.6,33,64,710
2026-01-01 10:00,McMurdo,-19.8,28,61,976
2026-01-01 10:00,Vostok,-59.7,19,40,641
2026-01-01 10:00,Amundsen-Scott,-33.0,32,65,711
2026-01-01 11:00,McMurdo,-20.4,27,60,975
2026-01-01 11:00,Vostok,-60.3,18,39,640
2026-01-01 11:00,Amundsen-Scott,-32.5,31,66,712
2026-01-01 12:00,McMurdo,-21.0,26,59,974
2026-01-01 12:00,Vostok,-60.8,17,38,639
2026-01-01 12:00,Amundsen-Scott,-32.0,30,67,713
2026-01-01 04:00,Vostok,-56.2,23,46,647
2026-01-01 04:00,Amundsen-Scott,-36.5,38,59,705
2026-01-01 05:00,McMurdo,-16.3,30,66,981
2026-01-01 05:00,Vostok,-56.9,19,45,646
2026-01-01 05:00,Amundsen-Scott,-35.8,37,60,706
2026-01-01 06:00,McMurdo,-17.0,32,65,980
2026-01-01 06:00,Vostok,-57.5,21,44,645
2026-01-01 06:00,Amundsen-Scott,-35.2,36,61,707
2026-01-01 07:00,McMurdo,-17.8,33,64,979
2026-01-01 07:00,Vostok,-58.0,24,43,644
2026-01-01 07:00,Amundsen-Scott,-34.7,35,62,708
2026-01-01 08:00,McMurdo,-18.5,31,63,978
2026-01-01 08:00,Vostok,-58.6,22,42,643
2026-01-01 08:00,Amundsen-Scott,-34.1,34,63,709
2026-01-01 09:00,McMurdo,-19.1,29,62,977
2026-01-01 09:00,Vostok,-59.2,20,41,642
2026-01-01 09:00,Amundsen-Scott,-33.6,33,64,710
2026-01-01 10:00,McMurdo,-19.8,28,61,976
2026-01-01 10:00,Vostok,-59.7,19,40,641
2026-01-01 10:00,Amundsen-Scott,-33.0,32,65,711
2026-01-01 11:00,McMurdo,-20.4,27,60,975
2026-01-01 11:00,Vostok,-60.3,18,39,640
2026-01-01 11:00,Amundsen-Scott,-32.5,31,66,712
2026-01-01 12:00,McMurdo,-21.0,26,59,974
2026-01-01 12:00,Vostok,-60.8,17,38,639
2026-01-01 12:00,Amundsen-Scott,-32.0,30,67,713
2026-01-01 04:00,Vostok,-56.2,23,46,647
2026-01-01 04:00,Amundsen-Scott,-36.5,38,59,705
2026-01-01 05:00,McMurdo,-16.3,30,66,981
2026-01-01 05:00,Vostok,-56.9,19,45,646
2026-01-01 05:00,Amundsen-Scott,-35.8,37,60,706
2026-01-01 06:00,McMurdo,-17.0,32,65,980
2026-01-01 06:00,Vostok,-57.5,21,44,645
2026-01-01 06:00,Amundsen-Scott,-35.2,36,61,707
2026-01-01 07:00,McMurdo,-17.8,33,64,979
2026-01-01 07:00,Vostok,-58.0,24,43,644
2026-01-01 07:00,Amundsen-Scott,-34.7,35,62,708
2026-01-01 08:00,McMurdo,-18.5,31,63,978
2026-01-01 08:00,Vostok,-58.6,22,42,643
2026-01-01 08:00,Amundsen-Scott,-34.1,34,63,709
2026-01-01 09:00,McMurdo,-19.1,29,62,977
2026-01-01 09:00,Vostok,-59.2,20,41,642
2026-01-01 09:00,Amundsen-Scott,-33.6,33,64,710
2026-01-01 10:00,McMurdo,-19.8,28,61,976
2026-01-01 10:00,Vostok,-59.7,19,40,641
2026-01-01 10:00,Amundsen-Scott,-33.0,32,65,711
2026-01-01 11:00,McMurdo,-20.4,27,60,975
2026-01-01 11:00,Vostok,-60.3,18,39,640
2026-01-01 11:00,Amundsen-Scott,-32.5,31,66,712
2026-01-01 12:00,McMurdo,-21.0,26,59,974
2026-01-01 12:00,Vostok,-60.8,17,38,639
2026-01-01 12:00,Amundsen-Scott,-32.0,30,67,713
2026-01-01 04:00,Vostok,-56.2,23,46,647
2026-01-01 04:00,Amundsen-Scott,-36.5,38,59,705
2026-01-01 05:00,McMurdo,-16.3,30,66,981
2026-01-01 05:00,Vostok,-56.9,19,45,646
2026-01-01 05:00,Amundsen-Scott,-35.8,37,60,706
2026-01-01 06:00,McMurdo,-17.0,32,65,980
2026-01-01 06:00,Vostok,-57.5,21,44,645
2026-01-01 06:00,Amundsen-Scott,-35.2,36,61,707
2026-01-01 07:00,McMurdo,-17.8,33,64,979
2026-01-01 07:00,Vostok,-58.0,24,43,644
2026-01-01 07:00,Amundsen-Scott,-34.7,35,62,708
2026-01-01 08:00,McMurdo,-18.5,31,63,978
2026-01-01 08:00,Vostok,-58.6,22,42,643
2026-01-01 08:00,Amundsen-Scott,-34.1,34,63,709
2026-01-01 09:00,McMurdo,-19.1,29,62,977
2026-01-01 09:00,Vostok,-59.2,20,41,642
2026-01-01 09:00,Amundsen-Scott,-33.6,33,64,710
2026-01-01 10:00,McMurdo,-19.8,28,61,976
2026-01-01 10:00,Vostok,-59.7,19,40,641
2026-01-01 10:00,Amundsen-Scott,-33.0,32,65,711
2026-01-01 11:00,McMurdo,-20.4,27,60,975
2026-01-01 11:00,Vostok,-60.3,18,39,640
2026-01-01 11:00,Amundsen-Scott,-32.5,31,66,712
2026-01-01 12:00,McMurdo,-21.0,26,59,974
2026-01-01 12:00,Vostok,-60.8,17,38,639
2026-01-01 12:00,Amundsen-Scott,-32.0,30,67,713
...
2026-01-01 04:00,McMurdo,-15.8,34,67,982
2026-01-01 04:00,Vostok,-56.2,23,46,647
2026-01-01 04:00,Amundsen-Scott,-36.5,38,59,705
2026-01-01 05:00,McMurdo,-16.3,30,66,981
2026-01-01 05:00,Vostok,-56.9,19,45,646
2026-01-01 05:00,Amundsen-Scott,-35.8,37,60,706
2026-01-01 06:00,McMurdo,-17.0,32,65,980
2026-01-01 06:00,Vostok,-57.5,21,44,645
2026-01-01 06:00,Amundsen-Scott,-35.2,36,61,707
2026-01-01 07:00,McMurdo,-17.8,33,64,979
2026-01-01 07:00,Vostok,-58.0,24,43,644
2026-01-01 07:00,Amundsen-Scott,-34.7,35,62,708
2026-01-01 08:00,McMurdo,-18.5,31,63,978
2026-01-01 08:00,Vostok,-58.6,22,42,643
2026-01-01 08:00,Amundsen-Scott,-34.1,34,63,709
2026-01-01 09:00,McMurdo,-19.1,29,62,977
2026-01-01 09:00,Vostok,-59.2,20,41,642
2026-01-01 09:00,Amundsen-Scott,-33.6,33,64,710
2026-01-01 10:00,McMurdo,-19.8,28,61,976
2026-01-01 10:00,Vostok,-59.7,19,40,641
2026-01-01 10:00,Amundsen-Scott,-33.0,32,65,711
2026-01-01 11:00,McMurdo,-20.4,27,60,975
2026-01-01 11:00,Vostok,-60.3,18,39,640
2026-01-01 11:00,Amundsen-Scott,-32.5,31,66,712
2026-01-01 12:00,McMurdo,-21.0,26,59,974
2026-01-01 12:00,Vostok,-60.8,17,38,639
2026-01-01 12:00,Amundsen-Scott,-32.0,30,67,713
...
2026-01-01 04:00,McMurdo,-15.8,34,67,982
2026-01-01 04:00,Vostok,-56.2,23,46,647
2026-01-01 04:00,Amundsen-Scott,-36.5,38,59,705
2026-01-01 05:00,McMurdo,-16.3,30,66,981
2026-01-01 05:00,Vostok,-56.9,19,45,646
2026-01-01 05:00,Amundsen-Scott,-35.8,37,60,706
2026-01-01 06:00,McMurdo,-17.0,32,65,980
2026-01-01 06:00,Vostok,-57.5,21,44,645
2026-01-01 06:00,Amundsen-Scott,-35.2,36,61,707
2026-01-01 07:00,McMurdo,-17.8,33,64,979
2026-01-01 07:00,Vostok,-58.0,24,43,644
2026-01-01 07:00,Amundsen-Scott,-34.7,35,62,708
2026-01-01 08:00,McMurdo,-18.5,31,63,978
2026-01-01 08:00,Vostok,-58.6,22,42,643
2026-01-01 08:00,Amundsen-Scott,-34.1,34,63,709
2026-01-01 09:00,McMurdo,-19.1,29,62,977
2026-01-01 09:00,Vostok,-59.2,20,41,642
2026-01-01 09:00,Amundsen-Scott,-33.6,33,64,710
2026-01-01 10:00,McMurdo,-19.8,28,61,976
2026-01-01 10:00,Vostok,-59.7,19,40,641
2026-01-01 10:00,Amundsen-Scott,-33.0,32,65,711
2026-01-01 11:00,McMurdo,-20.4,27,60,975
2026-01-01 11:00,Vostok,-60.3,18,39,640
2026-01-01 11:00,Amundsen-Scott,-32.5,31,66,712
2026-01-01 12:00,McMurdo,-21.0,26,59,974
2026-01-01 12:00,Vostok,-60.8,17,38,639
2026-01-01 12:00,Amundsen-Scott,-32.0,30,67,713
...
2026-01-01 04:00,McMurdo,-15.8,34,67,982
2026-01-01 04:00,Vostok,-56.2,23,46,647
2026-01-01 04:00,Amundsen-Scott,-36.5,38,59,705
2026-01-01 05:00,McMurdo,-16.3,30,66,981
2026-01-01 05:00,Vostok,-56.9,19,45,646
2026-01-01 05:00,Amundsen-Scott,-35.8,37,60,706
2026-01-01 06:00,McMurdo,-17.0,32,65,980
2026-01-01 06:00,Vostok,-57.5,21,44,645
2026-01-01 06:00,Amundsen-Scott,-35.2,36,61,707
2026-01-01 07:00,McMurdo,-17.8,33,64,979
2026-01-01 07:00,Vostok,-58.0,24,43,644
2026-01-01 07:00,Amundsen-Scott,-34.7,35,62,708
2026-01-01 08:00,McMurdo,-18.5,31,63,978
2026-01-01 08:00,Vostok,-58.6,22,42,643
2026-01-01 08:00,Amundsen-Scott,-34.1,34,63,709
2026-01-01 09:00,McMurdo,-19.1,29,62,977
2026-01-01 09:00,Vostok,-59.2,20,41,642
2026-01-01 09:00,Amundsen-Scott,-33.6,33,64,710
2026-01-01 10:00,McMurdo,-19.8,28,61,976
2026-01-01 10:00,Vostok,-59.7,19,40,641
2026-01-01 10:00,Amundsen-Scott,-33.0,32,65,711
2026-01-01 11:00,McMurdo,-20.4,27,60,975
2026-01-01 11:00,Vostok,-60.3,18,39,640
2026-01-01 11:00,Amundsen-Scott,-32.5,31,66,712
2026-01-01 12:00,McMurdo,-21.0,26,59,974
2026-01-01 12:00,Vostok,-60.8,17,38,639
2026-01-01 12:00,Amundsen-Scott,-32.0,30,67,713
...
2026-01-01 04:00,McMurdo,-15.8,34,67,982
2026-01-01 04:00,Vostok,-56.2,23,46,647
2026-01-01 04:00,Amundsen-Scott,-36.5,38,59,705
2026-01-01 05:00,McMurdo,-16.3,30,66,981
2026-01-01 05:00,Vostok,-56.9,19,45,646
2026-01-01 05:00,Amundsen-Scott,-35.8,37,60,706
2026-01-01 06:00,McMurdo,-17.0,32,65,980
2026-01-01 06:00,Vostok,-57.5,21,44,645
2026-01-01 06:00,Amundsen-Scott,-35.2,36,61,707
2026-01-01 07:00,McMurdo,-17.8,33,64,979
2026-01-01 07:00,Vostok,-58.0,24,43,644
2026-01-01 07:00,Amundsen-Scott,-34.7,35,62,708
2026-01-01 08:00,McMurdo,-18.5,31,63,978
2026-01-01 08:00,Vostok,-58.6,22,42,643
2026-01-01 08:00,Amundsen-Scott,-34.1,34,63,709
2026-01-01 09:00,McMurdo,-19.1,29,62,977
2026-01-01 09:00,Vostok,-59.2,20,41,642
2026-01-01 09:00,Amundsen-Scott,-33.6,33,64,710
2026-01-01 10:00,McMurdo,-19.8,28,61,976
2026-01-01 10:00,Vostok,-59.7,19,40,641
2026-01-01 10:00,Amundsen-Scott,-33.0,32,65,711
2026-01-01 11:00,McMurdo,-20.4,27,60,975
2026-01-01 11:00,Vostok,-60.3,18,39,640
2026-01-01 11:00,Amundsen-Scott,-32.5,31,66,712
2026-01-01 12:00,McMurdo,-21.0,26,59,974
2026-01-01 12:00,Vostok,-60.8,17,38,639
2026-01-01 12:00,Amundsen-Scott,-32.0,30,67,713
...
2026-01-01 04:00,McMurdo,-15.8,34,67,982
2026-01-01 04:00,Vostok,-56.2,23,46,647
2026-01-01 04:00,Amundsen-Scott,-36.5,38,59,705
2026-01-01 05:00,McMurdo,-16.3,30,66,981
2026-01-01 05:00,Vostok,-56.9,19,45,646
2026-01-01 05:00,Amundsen-Scott,-35.8,37,60,706
2026-01-01 06:00,McMurdo,-17.0,32,65,980
2026-01-01 06:00,Vostok,-57.5,21,44,645
2026-01-01 06:00,Amundsen-Scott,-35.2,36,61,707
2026-01-01 07:00,McMurdo,-17.8,33,64,979
2026-01-01 07:00,Vostok,-58.0,24,43,644
2026-01-01 07:00,Amundsen-Scott,-34.7,35,62,708
2026-01-01 08:00,McMurdo,-18.5,31,63,978
2026-01-01 08:00,Vostok,-58.6,22,42,643
2026-01-01 08:00,Amundsen-Scott,-34.1,34,63,709
2026-01-01 09:00,McMurdo,-19.1,29,62,977
2026-01-01 09:00,Vostok,-59.2,20,41,642
2026-01-01 09:00,Amundsen-Scott,-33.6,33,64,710
2026-01-01 10:00,McMurdo,-19.8,28,61,976
2026-01-01 10:00,Vostok,-59.7,19,40,641
2026-01-01 10:00,Amundsen-Scott,-33.0,32,65,711
2026-01-01 11:00,McMurdo,-20.4,27,60,975
2026-01-01 11:00,Vostok,-60.3,18,39,640
2026-01-01 11:00,Amundsen-Scott,-32.5,31,66,712
2026-01-01 12:00,McMurdo,-21.0,26,59,974
2026-01-01 12:00,Vostok,-60.8,17,38,639
2026-01-01 12:00,Amundsen-Scott,-32.0,30,67,713
...
2026-01-01 04:00,McMurdo,-15.8,34,67,982
2026-01-01 04:00,Vostok,-56.2,23,46,647
2026-01-01 04:00,Amundsen-Scott,-36.5,38,59,705
2026-01-01 05:00,McMurdo,-16.3,30,66,981
2026-01-01 05:00,Vostok,-56.9,19,45,646
2026-01-01 05:00,Amundsen-Scott,-35.8,37,60,706
2026-01-01 06:00,McMurdo,-17.0,32,65,980
2026-01-01 06:00,Vostok,-57.5,21,44,645
2026-01-01 06:00,Amundsen-Scott,-35.2,36,61,707
2026-01-01 07:00,McMurdo,-17.8,33,64,979
2026-01-01 07:00,Vostok,-58.0,24,43,644
2026-01-01 07:00,Amundsen-Scott,-34.7,35,62,708
2026-01-01 08:00,McMurdo,-18.5,31,63,978
2026-01-01 08:00,Vostok,-58.6,22,42,643
2026-01-01 08:00,Amundsen-Scott,-34.1,34,63,709
2026-01-01 09:00,McMurdo,-19.1,29,62,977
2026-01-01 09:00,Vostok,-59.2,20,41,642
2026-01-01 09:00,Amundsen-Scott,-33.6,33,64,710
2026-01-01 10:00,McMurdo,-19.8,28,61,976
2026-01-01 10:00,Vostok,-59.7,19,40,641
2026-01-01 10:00,Amundsen-Scott,-33.0,32,65,711
2026-01-01 11:00,McMurdo,-20.4,27,60,975
2026-01-01 11:00,Vostok,-60.3,18,39,640
2026-01-01 11:00,Amundsen-Scott,-32.5,31,66,712
2026-01-01 12:00,McMurdo,-21.0,26,59,974
2026-01-01 12:00,Vostok,-60.8,17,38,639
2026-01-01 12:00,Amundsen-Scott,-32.0,30,67,713
2026-01-01 04:00,Vostok,-56.2,23,46,647
2026-01-01 04:00,Amundsen-Scott,-36.5,38,59,705
2026-01-01 05:00,McMurdo,-16.3,30,66,981
2026-01-01 05:00,Vostok,-56.9,19,45,646
2026-01-01 05:00,Amundsen-Scott,-35.8,37,60,706
2026-01-01 06:00,McMurdo,-17.0,32,65,980
2026-01-01 06:00,Vostok,-57.5,21,44,645
2026-01-01 06:00,Amundsen-Scott,-35.2,36,61,707
2026-01-01 07:00,McMurdo,-17.8,33,64,979
2026-01-01 07:00,Vostok,-58.0,24,43,644
2026-01-01 07:00,Amundsen-Scott,-34.7,35,62,708
2026-01-01 08:00,McMurdo,-18.5,31,63,978
2026-01-01 08:00,Vostok,-58.6,22,42,643
2026-01-01 08:00,Amundsen-Scott,-34.1,34,63,709
2026-01-01 09:00,McMurdo,-19.1,29,62,977
2026-01-01 09:00,Vostok,-59.2,20,41,642
2026-01-01 09:00,Amundsen-Scott,-33.6,33,64,710
2026-01-01 10:00,McMurdo,-19.8,28,61,976
2026-01-01 10:00,Vostok,-59.7,19,40,641
2026-01-01 10:00,Amundsen-Scott,-33.0,32,65,711
2026-01-01 11:00,McMurdo,-20.4,27,60,975
2026-01-01 11:00,Vostok,-60.3,18,39,640
2026-01-01 11:00,Amundsen-Scott,-32.5,31,66,712
2026-01-01 12:00,McMurdo,-21.0,26,59,974
2026-01-01 12:00,Vostok,-60.8,17,38,639
2026-01-01 12:00,Amundsen-Scott,-32.0,30,67,713
...
2026-01-01 04:00,McMurdo,-15.8,34,67,982
2026-01-01 04:00,Vostok,-56.2,23,46,647
2026-01-01 04:00,Amundsen-Scott,-36.5,38,59,705
2026-01-01 05:00,McMurdo,-16.3,30,66,981
2026-01-01 05:00,Vostok,-56.9,19,45,646
2026-01-01 05:00,Amundsen-Scott,-35.8,37,60,706
2026-01-01 06:00,McMurdo,-17.0,32,65,980
2026-01-01 06:00,Vostok,-57.5,21,44,645
2026-01-01 06:00,Amundsen-Scott,-35.2,36,61,707
2026-01-01 07:00,McMurdo,-17.8,33,64,979
2026-01-01 07:00,Vostok,-58.0,24,43,644
2026-01-01 07:00,Amundsen-Scott,-34.7,35,62,708
2026-01-01 08:00,McMurdo,-18.5,31,63,978
2026-01-01 08:00,Vostok,-58.6,22,42,643
2026-01-01 08:00,Amundsen-Scott,-34.1,34,63,709
2026-01-01 09:00,McMurdo,-19.1,29,62,977
2026-01-01 09:00,Vostok,-59.2,20,41,642
2026-01-01 09:00,Amundsen-Scott,-33.6,33,64,710
2026-01-01 10:00,McMurdo,-19.8,28,61,976
2026-01-01 10:00,Vostok,-59.7,19,40,641
2026-01-01 10:00,Amundsen-Scott,-33.0,32,65,711
2026-01-01 11:00,McMurdo,-20.4,27,60,975
2026-01-01 11:00,Vostok,-60.3,18,39,640
2026-01-01 11:00,Amundsen-Scott,-32.5,31,66,712
2026-01-01 12:00,McMurdo,-21.0,26,59,974
2026-01-01 12:00,Vostok,-60.8,17,38,639
2026-01-01 12:00,Amundsen-Scott,-32.0,30,67,713
...
2026-01-01 04:00,McMurdo,-15.8,34,67,982
2026-01-01 04:00,Vostok,-56.2,23,46,647
2026-01-01 04:00,Amundsen-Scott,-36.5,38,59,705
2026-01-01 05:00,McMurdo,-16.3,30,66,981
2026-01-01 05:00,Vostok,-56.9,19,45,646
2026-01-01 05:00,Amundsen-Scott,-35.8,37,60,706
2026-01-01 06:00,McMurdo,-17.0,32,65,980
2026-01-01 06:00,Vostok,-57.5,21,44,645
2026-01-01 06:00,Amundsen-Scott,-35.2,36,61,707
2026-01-01 07:00,McMurdo,-17.8,33,64,979
2026-01-01 07:00,Vostok,-58.0,24,43,644
2026-01-01 07:00,Amundsen-Scott,-34.7,35,62,708
2026-01-01 08:00,McMurdo,-18.5,31,63,978
2026-01-01 08:00,Vostok,-58.6,22,42,643
2026-01-01 08:00,Amundsen-Scott,-34.1,34,63,709
2026-01-01 09:00,McMurdo,-19.1,29,62,977
2026-01-01 09:00,Vostok,-59.2,20,41,642
2026-01-01 09:00,Amundsen-Scott,-33.6,33,64,710
2026-01-01 10:00,McMurdo,-19.8,28,61,976
2026-01-01 10:00,Vostok,-59.7,19,40,641
2026-01-01 10:00,Amundsen-Scott,-33.0,32,65,711
2026-01-01 11:00,McMurdo,-20.4,27,60,975
2026-01-01 11:00,Vostok,-60.3,18,39,640
2026-01-01 11:00,Amundsen-Scott,-32.5,31,66,712
2026-01-01 12:00,McMurdo,-21.0,26,59,974
2026-01-01 12:00,Vostok,-60.8,17,38,639
2026-01-01 12:00,Amundsen-Scott,-32.0,30,67,713
...
2026-01-01 04:00,McMurdo,-15.8,34,67,982
2026-01-01 04:00,Vostok,-56.2,23,46,647
2026-01-01 04:00,Amundsen-Scott,-36.5,38,59,705
2026-01-01 05:00,McMurdo,-16.3,30,66,981
2026-01-01 05:00,Vostok,-56.9,19,45,646
2026-01-01 05:00,Amundsen-Scott,-35.8,37,60,706
2026-01-01 06:00,McMurdo,-17.0,32,65,980
2026-01-01 06:00,Vostok,-57.5,21,44,645
2026-01-01 06:00,Amundsen-Scott,-35.2,36,61,707
2026-01-01 07:00,McMurdo,-17.8,33,64,979
2026-01-01 07:00,Vostok,-58.0,24,43,644
2026-01-01 07:00,Amundsen-Scott,-34.7,35,62,708
2026-01-01 08:00,McMurdo,-18.5,31,63,978
2026-01-01 08:00,Vostok,-58.6,22,42,643
2026-01-01 08:00,Amundsen-Scott,-34.1,34,63,709
2026-01-01 09:00,McMurdo,-19.1,29,62,977
2026-01-01 09:00,Vostok,-59.2,20,41,642
2026-01-01 09:00,Amundsen-Scott,-33.6,33,64,710
2026-01-01 10:00,McMurdo,-19.8,28,61,976
2026-01-01 10:00,Vostok,-59.7,19,40,641
2026-01-01 10:00,Amundsen-Scott,-33.0,32,65,711
2026-01-01 11:00,McMurdo,-20.4,27,60,975
2026-01-01 11:00,Vostok,-60.3,18,39,640
2026-01-01 11:00,Amundsen-Scott,-32.5,31,66,712
2026-01-01 12:00,McMurdo,-21.0,26,59,974
2026-01-01 12:00,Vostok,-60.8,17,38,639
2026-01-01 12:00,Amundsen-Scott,-32.0,30,67,713
...
2026-01-01 04:00,McMurdo,-15.8,34,67,982
2026-01-01 04:00,Vostok,-56.2,23,46,647
2026-01-01 04:00,Amundsen-Scott,-36.5,38,59,705
2026-01-01 05:00,McMurdo,-16.3,30,66,981
2026-01-01 05:00,Vostok,-56.9,19,45,646
2026-01-01 05:00,Amundsen-Scott,-35.8,37,60,706
2026-01-01 06:00,McMurdo,-17.0,32,65,980
2026-01-01 06:00,Vostok,-57.5,21,44,645
2026-01-01 06:00,Amundsen-Scott,-35.2,36,61,707
2026-01-01 07:00,McMurdo,-17.8,33,64,979
2026-01-01 07:00,Vostok,-58.0,24,43,644
2026-01-01 07:00,Amundsen-Scott,-34.7,35,62,708
2026-01-01 08:00,McMurdo,-18.5,31,63,978
2026-01-01 08:00,Vostok,-58.6,22,42,643
2026-01-01 08:00,Amundsen-Scott,-34.1,34,63,709
2026-01-01 09:00,McMurdo,-19.1,29,62,977
2026-01-01 09:00,Vostok,-59.2,20,41,642
2026-01-01 09:00,Amundsen-Scott,-33.6,33,64,710
2026-01-01 10:00,McMurdo,-19.8,28,61,976
2026-01-01 10:00,Vostok,-59.7,19,40,641
2026-01-01 10:00,Amundsen-Scott,-33.0,32,65,711
2026-01-01 11:00,McMurdo,-20.4,27,60,975
2026-01-01 11:00,Vostok,-60.3,18,39,640
2026-01-01 11:00,Amundsen-Scott,-32.5,31,66,712
2026-01-01 12:00,McMurdo,-21.0,26,59,974
2026-01-01 12:00,Vostok,-60.8,17,38,639
2026-01-01 12:00,Amundsen-Scott,-32.0,30,67,713
...
2026-01-01 01:00,Vostok,-55.1,18,50,650
2026-01-01 01:00,Amundsen-Scott,-37.5,39,57,703
2026-01-01 02:00,McMurdo,-14.0,33,68,985
2026-01-01 02:00,Vostok,-56.0,25,47,648
2026-01-01 02:00,Amundsen-Scott,-36.9,42,56,704
2026-01-01 03:00,McMurdo,-15.1,31,69,983
2026-01-01 03:00,Vostok,-55.7,20,49,649
2026-01-01 03:00,Amundsen-Scott,-37.2,40,58,702
...
2026-01-01 04:00,McMurdo,-15.8,34,67,982
2026-01-01 04:00,Vostok,-56.2,23,46,647
2026-01-01 04:00,Amundsen-Scott,-
2026-01-01 04:00,McMurdo,-15.8,34,67,982
2026-01-01 04:00,Vostok,-56.2,23,46,647
2026-01-01 04:00,Amundsen-Scott,-